sensor_id;sensor_type;location;lat;lon;timestamp;P1;durP1;ratioP1;P2;durP2;ratioP2
22334;SDS011;11335;43.848;25.958;2023-11-21T00:02:45;9.68;;;6.30;;
22334;SDS011;11335;43.848;25.958;2023-11-21T00:05:31;10.60;;;6.05;;
22334;SDS011;11335;43.848;25.958;2023-11-21T00:08:16;9.30;;;5.70;;
22334;SDS011;11335;43.848;25.958;2023-11-21T00:11:02;10.23;;;5.60;;
22334;SDS011;11335;43.848;25.958;2023-11-21T00:13:50;9.45;;;5.85;;
22334;SDS011;11335;43.848;25.958;2023-11-21T00:16:36;9.02;;;5.63;;
22334;SDS011;11335;43.848;25.958;2023-11-21T00:19:21;8.70;;;5.32;;
22334;SDS011;11335;43.848;25.958;2023-11-21T00:22:07;9.52;;;5.20;;
22334;SDS011;11335;43.848;25.958;2023-11-21T00:24:52;10.60;;;5.70;;
22334;SDS011;11335;43.848;25.958;2023-11-21T00:27:38;9.52;;;5.72;;
22334;SDS011;11335;43.848;25.958;2023-11-21T00:30:24;9.02;;;5.43;;
22334;SDS011;11335;43.848;25.958;2023-11-21T00:33:09;10.77;;;5.68;;
22334;SDS011;11335;43.848;25.958;2023-11-21T00:35:55;9.27;;;5.80;;
22334;SDS011;11335;43.848;25.958;2023-11-21T00:38:41;9.23;;;5.05;;
22334;SDS011;11335;43.848;25.958;2023-11-21T00:41:27;9.75;;;5.70;;
22334;SDS011;11335;43.848;25.958;2023-11-21T00:44:13;9.32;;;5.28;;
22334;SDS011;11335;43.848;25.958;2023-11-21T00:46:58;7.47;;;5.10;;
22334;SDS011;11335;43.848;25.958;2023-11-21T00:49:44;8.85;;;5.25;;
22334;SDS011;11335;43.848;25.958;2023-11-21T00:52:29;8.57;;;5.38;;
22334;SDS011;11335;43.848;25.958;2023-11-21T00:55:15;9.07;;;5.55;;
22334;SDS011;11335;43.848;25.958;2023-11-21T00:58:01;8.52;;;5.40;;
22334;SDS011;11335;43.848;25.958;2023-11-21T01:00:49;9.40;;;5.68;;
22334;SDS011;11335;43.848;25.958;2023-11-21T01:03:35;9.15;;;5.63;;
22334;SDS011;11335;43.848;25.958;2023-11-21T01:06:20;9.40;;;5.55;;
22334;SDS011;11335;43.848;25.958;2023-11-21T01:09:06;9.73;;;5.53;;
22334;SDS011;11335;43.848;25.958;2023-11-21T01:11:53;8.40;;;5.50;;
22334;SDS011;11335;43.848;25.958;2023-11-21T01:14:39;8.93;;;5.38;;
22334;SDS011;11335;43.848;25.958;2023-11-21T01:17:24;8.95;;;5.38;;
22334;SDS011;11335;43.848;25.958;2023-11-21T01:20:10;8.63;;;5.30;;
22334;SDS011;11335;43.848;25.958;2023-11-21T01:22:57;8.88;;;5.03;;
22334;SDS011;11335;43.848;25.958;2023-11-21T01:25:43;9.45;;;5.38;;
22334;SDS011;11335;43.848;25.958;2023-11-21T01:28:28;8.85;;;5.65;;
22334;SDS011;11335;43.848;25.958;2023-11-21T01:31:14;7.43;;;4.60;;
22334;SDS011;11335;43.848;25.958;2023-11-21T01:34:00;8.27;;;5.32;;
22334;SDS011;11335;43.848;25.958;2023-11-21T01:36:46;10.73;;;5.25;;
22334;SDS011;11335;43.848;25.958;2023-11-21T01:39:32;10.68;;;4.60;;
22334;SDS011;11335;43.848;25.958;2023-11-21T01:42:17;8.23;;;5.25;;
22334;SDS011;11335;43.848;25.958;2023-11-21T01:45:04;7.82;;;4.50;;
22334;SDS011;11335;43.848;25.958;2023-11-21T01:47:50;10.75;;;4.65;;
22334;SDS011;11335;43.848;25.958;2023-11-21T01:50:36;10.35;;;4.65;;
22334;SDS011;11335;43.848;25.958;2023-11-21T01:53:21;8.55;;;4.32;;
22334;SDS011;11335;43.848;25.958;2023-11-21T01:56:07;8.77;;;4.72;;
22334;SDS011;11335;43.848;25.958;2023-11-21T01:58:54;9.43;;;4.60;;
22334;SDS011;11335;43.848;25.958;2023-11-21T02:01:39;7.25;;;4.20;;
22334;SDS011;11335;43.848;25.958;2023-11-21T02:04:26;7.65;;;4.43;;
22334;SDS011;11335;43.848;25.958;2023-11-21T02:07:12;9.35;;;4.22;;
22334;SDS011;11335;43.848;25.958;2023-11-21T02:09:58;7.85;;;4.30;;
22334;SDS011;11335;43.848;25.958;2023-11-21T02:12:44;9.70;;;4.22;;
22334;SDS011;11335;43.848;25.958;2023-11-21T02:15:30;7.15;;;3.90;;
22334;SDS011;11335;43.848;25.958;2023-11-21T02:18:15;5.95;;;3.92;;
22334;SDS011;11335;43.848;25.958;2023-11-21T02:21:01;9.00;;;4.53;;
22334;SDS011;11335;43.848;25.958;2023-11-21T02:23:49;10.35;;;4.85;;
22334;SDS011;11335;43.848;25.958;2023-11-21T02:26:34;6.82;;;3.85;;
22334;SDS011;11335;43.848;25.958;2023-11-21T02:29:20;9.27;;;4.03;;
22334;SDS011;11335;43.848;25.958;2023-11-21T02:32:13;6.82;;;4.22;;
22334;SDS011;11335;43.848;25.958;2023-11-21T02:34:59;7.90;;;4.22;;
22334;SDS011;11335;43.848;25.958;2023-11-21T02:37:53;9.23;;;4.30;;
22334;SDS011;11335;43.848;25.958;2023-11-21T02:40:39;8.30;;;4.10;;
22334;SDS011;11335;43.848;25.958;2023-11-21T02:43:24;8.25;;;4.22;;
22334;SDS011;11335;43.848;25.958;2023-11-21T02:46:10;6.78;;;4.03;;
22334;SDS011;11335;43.848;25.958;2023-11-21T02:48:56;6.93;;;4.18;;
22334;SDS011;11335;43.848;25.958;2023-11-21T02:51:43;6.90;;;4.30;;
22334;SDS011;11335;43.848;25.958;2023-11-21T02:54:28;6.28;;;4.05;;
22334;SDS011;11335;43.848;25.958;2023-11-21T02:57:14;6.97;;;3.90;;
22334;SDS011;11335;43.848;25.958;2023-11-21T03:00:00;6.38;;;4.10;;
22334;SDS011;11335;43.848;25.958;2023-11-21T03:02:45;12.38;;;5.60;;
22334;SDS011;11335;43.848;25.958;2023-11-21T03:05:33;6.85;;;4.00;;
22334;SDS011;11335;43.848;25.958;2023-11-21T03:08:20;5.85;;;3.70;;
22334;SDS011;11335;43.848;25.958;2023-11-21T03:11:06;7.80;;;4.18;;
22334;SDS011;11335;43.848;25.958;2023-11-21T03:13:52;8.82;;;4.05;;
22334;SDS011;11335;43.848;25.958;2023-11-21T03:16:37;5.30;;;3.70;;
22334;SDS011;11335;43.848;25.958;2023-11-21T03:19:23;6.90;;;3.80;;
22334;SDS011;11335;43.848;25.958;2023-11-21T03:22:09;8.80;;;4.50;;
22334;SDS011;11335;43.848;25.958;2023-11-21T03:24:55;8.07;;;4.13;;
22334;SDS011;11335;43.848;25.958;2023-11-21T03:27:40;6.75;;;4.13;;
22334;SDS011;11335;43.848;25.958;2023-11-21T03:30:26;6.38;;;3.90;;
22334;SDS011;11335;43.848;25.958;2023-11-21T03:33:11;6.28;;;3.78;;
22334;SDS011;11335;43.848;25.958;2023-11-21T03:35:57;6.35;;;4.00;;
22334;SDS011;11335;43.848;25.958;2023-11-21T03:38:43;8.63;;;4.13;;
22334;SDS011;11335;43.848;25.958;2023-11-21T03:41:29;8.43;;;4.15;;
22334;SDS011;11335;43.848;25.958;2023-11-21T03:44:14;10.75;;;4.22;;
22334;SDS011;11335;43.848;25.958;2023-11-21T03:47:00;7.32;;;3.97;;
22334;SDS011;11335;43.848;25.958;2023-11-21T03:49:45;7.45;;;4.40;;
22334;SDS011;11335;43.848;25.958;2023-11-21T03:52:31;6.72;;;3.78;;
22334;SDS011;11335;43.848;25.958;2023-11-21T03:55:17;10.50;;;3.97;;
22334;SDS011;11335;43.848;25.958;2023-11-21T03:58:03;7.53;;;3.78;;
22334;SDS011;11335;43.848;25.958;2023-11-21T04:00:48;10.82;;;3.83;;
22334;SDS011;11335;43.848;25.958;2023-11-21T04:03:37;8.18;;;3.63;;
22334;SDS011;11335;43.848;25.958;2023-11-21T04:06:23;6.60;;;3.55;;
22334;SDS011;11335;43.848;25.958;2023-11-21T04:09:09;6.95;;;3.58;;
22334;SDS011;11335;43.848;25.958;2023-11-21T04:11:54;8.00;;;3.67;;
22334;SDS011;11335;43.848;25.958;2023-11-21T04:14:41;10.55;;;4.03;;
22334;SDS011;11335;43.848;25.958;2023-11-21T04:17:26;5.43;;;3.85;;
22334;SDS011;11335;43.848;25.958;2023-11-21T04:20:12;6.40;;;3.97;;
22334;SDS011;11335;43.848;25.958;2023-11-21T04:22:57;8.07;;;3.88;;
22334;SDS011;11335;43.848;25.958;2023-11-21T04:25:43;6.05;;;3.72;;
22334;SDS011;11335;43.848;25.958;2023-11-21T04:28:28;8.63;;;4.22;;
22334;SDS011;11335;43.848;25.958;2023-11-21T04:31:14;7.65;;;4.00;;
22334;SDS011;11335;43.848;25.958;2023-11-21T04:34:00;6.82;;;3.90;;
22334;SDS011;11335;43.848;25.958;2023-11-21T04:36:45;6.88;;;3.85;;
22334;SDS011;11335;43.848;25.958;2023-11-21T04:39:31;7.63;;;4.22;;
22334;SDS011;11335;43.848;25.958;2023-11-21T04:42:17;8.30;;;3.78;;
22334;SDS011;11335;43.848;25.958;2023-11-21T04:45:05;8.05;;;4.35;;
22334;SDS011;11335;43.848;25.958;2023-11-21T04:47:54;7.25;;;4.30;;
22334;SDS011;11335;43.848;25.958;2023-11-21T04:50:40;9.63;;;4.80;;
22334;SDS011;11335;43.848;25.958;2023-11-21T04:53:25;6.97;;;4.53;;
22334;SDS011;11335;43.848;25.958;2023-11-21T04:56:11;9.20;;;4.72;;
22334;SDS011;11335;43.848;25.958;2023-11-21T04:58:56;6.78;;;3.90;;
22334;SDS011;11335;43.848;25.958;2023-11-21T05:01:42;8.43;;;4.18;;
22334;SDS011;11335;43.848;25.958;2023-11-21T05:04:27;13.20;;;4.68;;
22334;SDS011;11335;43.848;25.958;2023-11-21T05:07:13;8.45;;;4.68;;
22334;SDS011;11335;43.848;25.958;2023-11-21T05:09:59;8.80;;;4.68;;
22334;SDS011;11335;43.848;25.958;2023-11-21T05:12:44;11.57;;;4.85;;
22334;SDS011;11335;43.848;25.958;2023-11-21T05:15:30;9.05;;;4.95;;
22334;SDS011;11335;43.848;25.958;2023-11-21T05:18:16;9.57;;;4.68;;
22334;SDS011;11335;43.848;25.958;2023-11-21T05:21:01;10.13;;;4.60;;
22334;SDS011;11335;43.848;25.958;2023-11-21T05:23:47;12.32;;;5.20;;
22334;SDS011;11335;43.848;25.958;2023-11-21T05:26:33;8.05;;;4.85;;
22334;SDS011;11335;43.848;25.958;2023-11-21T05:29:18;13.50;;;5.28;;
22334;SDS011;11335;43.848;25.958;2023-11-21T05:32:04;11.13;;;5.20;;
22334;SDS011;11335;43.848;25.958;2023-11-21T05:34:50;9.18;;;5.10;;
22334;SDS011;11335;43.848;25.958;2023-11-21T05:37:35;13.30;;;5.75;;
22334;SDS011;11335;43.848;25.958;2023-11-21T05:40:21;9.80;;;5.18;;
22334;SDS011;11335;43.848;25.958;2023-11-21T05:43:07;10.52;;;5.38;;
22334;SDS011;11335;43.848;25.958;2023-11-21T05:45:53;16.50;;;5.90;;
22334;SDS011;11335;43.848;25.958;2023-11-21T05:48:38;9.82;;;5.45;;
22334;SDS011;11335;43.848;25.958;2023-11-21T05:51:24;18.95;;;7.85;;
22334;SDS011;11335;43.848;25.958;2023-11-21T05:54:10;9.55;;;5.28;;
22334;SDS011;11335;43.848;25.958;2023-11-21T05:56:55;10.32;;;6.07;;
22334;SDS011;11335;43.848;25.958;2023-11-21T05:59:41;9.13;;;6.10;;
22334;SDS011;11335;43.848;25.958;2023-11-21T06:02:27;17.10;;;6.72;;
22334;SDS011;11335;43.848;25.958;2023-11-21T06:05:13;22.95;;;6.75;;
22334;SDS011;11335;43.848;25.958;2023-11-21T06:07:59;21.50;;;7.68;;
22334;SDS011;11335;43.848;25.958;2023-11-21T06:10:46;15.98;;;8.05;;
22334;SDS011;11335;43.848;25.958;2023-11-21T06:13:34;20.25;;;7.93;;
22334;SDS011;11335;43.848;25.958;2023-11-21T06:16:20;18.65;;;10.18;;
22334;SDS011;11335;43.848;25.958;2023-11-21T06:19:06;21.70;;;10.40;;
22334;SDS011;11335;43.848;25.958;2023-11-21T06:21:52;25.45;;;12.65;;
22334;SDS011;11335;43.848;25.958;2023-11-21T06:24:37;25.15;;;12.32;;
22334;SDS011;11335;43.848;25.958;2023-11-21T06:27:24;25.48;;;13.32;;
22334;SDS011;11335;43.848;25.958;2023-11-21T06:30:10;24.02;;;12.32;;
22334;SDS011;11335;43.848;25.958;2023-11-21T06:32:56;24.60;;;11.35;;
22334;SDS011;11335;43.848;25.958;2023-11-21T06:35:42;24.13;;;11.32;;
22334;SDS011;11335;43.848;25.958;2023-11-21T06:38:28;19.92;;;11.65;;
22334;SDS011;11335;43.848;25.958;2023-11-21T06:41:15;17.83;;;9.18;;
22334;SDS011;11335;43.848;25.958;2023-11-21T06:44:01;16.20;;;8.93;;
22334;SDS011;11335;43.848;25.958;2023-11-21T06:46:46;20.13;;;9.20;;
22334;SDS011;11335;43.848;25.958;2023-11-21T06:49:33;22.13;;;9.43;;
22334;SDS011;11335;43.848;25.958;2023-11-21T06:52:19;24.33;;;9.75;;
22334;SDS011;11335;43.848;25.958;2023-11-21T06:55:05;18.58;;;8.50;;
22334;SDS011;11335;43.848;25.958;2023-11-21T06:57:53;23.15;;;8.70;;
22334;SDS011;11335;43.848;25.958;2023-11-21T07:00:39;19.65;;;8.98;;
22334;SDS011;11335;43.848;25.958;2023-11-21T07:03:24;20.92;;;9.85;;
22334;SDS011;11335;43.848;25.958;2023-11-21T07:06:10;18.48;;;8.40;;
22334;SDS011;11335;43.848;25.958;2023-11-21T07:08:56;18.90;;;9.25;;
22334;SDS011;11335;43.848;25.958;2023-11-21T07:11:42;18.55;;;9.40;;
22334;SDS011;11335;43.848;25.958;2023-11-21T07:14:28;22.60;;;9.27;;
22334;SDS011;11335;43.848;25.958;2023-11-21T07:17:13;18.08;;;9.63;;
22334;SDS011;11335;43.848;25.958;2023-11-21T07:19:59;18.13;;;9.27;;
22334;SDS011;11335;43.848;25.958;2023-11-21T07:22:45;15.90;;;9.10;;
22334;SDS011;11335;43.848;25.958;2023-11-21T07:25:31;18.98;;;9.13;;
22334;SDS011;11335;43.848;25.958;2023-11-21T07:28:17;25.60;;;8.32;;
22334;SDS011;11335;43.848;25.958;2023-11-21T07:31:02;20.05;;;8.80;;
22334;SDS011;11335;43.848;25.958;2023-11-21T07:33:48;21.48;;;7.38;;
22334;SDS011;11335;43.848;25.958;2023-11-21T07:36:34;26.50;;;6.90;;
22334;SDS011;11335;43.848;25.958;2023-11-21T07:39:19;22.95;;;8.07;;
22334;SDS011;11335;43.848;25.958;2023-11-21T07:42:06;19.10;;;6.95;;
22334;SDS011;11335;43.848;25.958;2023-11-21T07:44:52;23.15;;;8.93;;
22334;SDS011;11335;43.848;25.958;2023-11-21T07:47:37;16.58;;;6.45;;
22334;SDS011;11335;43.848;25.958;2023-11-21T07:50:24;17.02;;;5.43;;
22334;SDS011;11335;43.848;25.958;2023-11-21T07:53:09;14.65;;;6.70;;
22334;SDS011;11335;43.848;25.958;2023-11-21T07:55:55;18.73;;;6.88;;
22334;SDS011;11335;43.848;25.958;2023-11-21T07:58:41;19.02;;;6.10;;
22334;SDS011;11335;43.848;25.958;2023-11-21T08:01:27;12.38;;;5.45;;
22334;SDS011;11335;43.848;25.958;2023-11-21T08:04:13;12.93;;;5.53;;
22334;SDS011;11335;43.848;25.958;2023-11-21T08:06:58;11.88;;;6.25;;
22334;SDS011;11335;43.848;25.958;2023-11-21T08:09:44;12.30;;;6.60;;
22334;SDS011;11335;43.848;25.958;2023-11-21T08:12:30;9.82;;;6.43;;
22334;SDS011;11335;43.848;25.958;2023-11-21T08:15:15;14.05;;;8.27;;
22334;SDS011;11335;43.848;25.958;2023-11-21T08:18:01;22.02;;;9.68;;
22334;SDS011;11335;43.848;25.958;2023-11-21T08:20:47;15.48;;;7.72;;
22334;SDS011;11335;43.848;25.958;2023-11-21T08:23:33;10.40;;;6.20;;
22334;SDS011;11335;43.848;25.958;2023-11-21T08:26:20;10.07;;;5.75;;
22334;SDS011;11335;43.848;25.958;2023-11-21T08:29:05;12.00;;;5.82;;
22334;SDS011;11335;43.848;25.958;2023-11-21T08:31:54;13.35;;;6.00;;
22334;SDS011;11335;43.848;25.958;2023-11-21T08:34:40;26.60;;;6.72;;
22334;SDS011;11335;43.848;25.958;2023-11-21T08:37:28;15.25;;;6.25;;
22334;SDS011;11335;43.848;25.958;2023-11-21T08:40:15;14.98;;;6.78;;
22334;SDS011;11335;43.848;25.958;2023-11-21T08:43:02;23.15;;;7.45;;
22334;SDS011;11335;43.848;25.958;2023-11-21T08:45:49;16.63;;;8.68;;
22334;SDS011;11335;43.848;25.958;2023-11-21T08:48:38;21.90;;;9.10;;
22334;SDS011;11335;43.848;25.958;2023-11-21T08:51:23;17.65;;;8.43;;
22334;SDS011;11335;43.848;25.958;2023-11-21T08:54:09;16.45;;;8.77;;
22334;SDS011;11335;43.848;25.958;2023-11-21T08:56:55;14.15;;;7.68;;
22334;SDS011;11335;43.848;25.958;2023-11-21T08:59:40;28.90;;;11.82;;
22334;SDS011;11335;43.848;25.958;2023-11-21T09:02:26;14.23;;;7.18;;
22334;SDS011;11335;43.848;25.958;2023-11-21T09:05:12;12.38;;;6.90;;
22334;SDS011;11335;43.848;25.958;2023-11-21T09:07:58;13.05;;;7.03;;
22334;SDS011;11335;43.848;25.958;2023-11-21T09:10:44;11.02;;;5.60;;
22334;SDS011;11335;43.848;25.958;2023-11-21T09:13:32;11.68;;;5.00;;
22334;SDS011;11335;43.848;25.958;2023-11-21T09:16:18;12.20;;;5.22;;
22334;SDS011;11335;43.848;25.958;2023-11-21T09:19:03;27.45;;;5.95;;
22334;SDS011;11335;43.848;25.958;2023-11-21T09:21:50;11.93;;;3.40;;
22334;SDS011;11335;43.848;25.958;2023-11-21T09:24:36;7.22;;;3.08;;
22334;SDS011;11335;43.848;25.958;2023-11-21T09:27:23;7.45;;;3.45;;
22334;SDS011;11335;43.848;25.958;2023-11-21T09:30:08;7.57;;;3.88;;
22334;SDS011;11335;43.848;25.958;2023-11-21T09:32:55;8.48;;;3.75;;
22334;SDS011;11335;43.848;25.958;2023-11-21T09:35:40;8.55;;;3.60;;
22334;SDS011;11335;43.848;25.958;2023-11-21T09:38:26;9.38;;;3.47;;
22334;SDS011;11335;43.848;25.958;2023-11-21T09:41:21;23.80;;;3.75;;
22334;SDS011;11335;43.848;25.958;2023-11-21T09:44:09;4.72;;;2.50;;
22334;SDS011;11335;43.848;25.958;2023-11-21T09:46:58;12.93;;;2.40;;
22334;SDS011;11335;43.848;25.958;2023-11-21T09:49:46;5.63;;;2.33;;
22334;SDS011;11335;43.848;25.958;2023-11-21T09:52:32;16.65;;;3.10;;
22334;SDS011;11335;43.848;25.958;2023-11-21T09:55:19;9.27;;;3.10;;
22334;SDS011;11335;43.848;25.958;2023-11-21T09:58:06;6.20;;;3.03;;
22334;SDS011;11335;43.848;25.958;2023-11-21T10:00:53;27.55;;;3.67;;
22334;SDS011;11335;43.848;25.958;2023-11-21T10:03:39;7.72;;;2.92;;
22334;SDS011;11335;43.848;25.958;2023-11-21T10:06:25;5.75;;;2.92;;
22334;SDS011;11335;43.848;25.958;2023-11-21T10:09:12;7.95;;;3.35;;
22334;SDS011;11335;43.848;25.958;2023-11-21T10:11:58;4.25;;;2.30;;
22334;SDS011;11335;43.848;25.958;2023-11-21T10:14:46;5.45;;;2.30;;
22334;SDS011;11335;43.848;25.958;2023-11-21T10:17:35;5.55;;;2.17;;
22334;SDS011;11335;43.848;25.958;2023-11-21T10:20:28;7.82;;;2.67;;
22334;SDS011;11335;43.848;25.958;2023-11-21T10:23:14;6.88;;;3.00;;
22334;SDS011;11335;43.848;25.958;2023-11-21T10:26:01;4.40;;;2.35;;
22334;SDS011;11335;43.848;25.958;2023-11-21T10:28:56;4.63;;;2.13;;
22334;SDS011;11335;43.848;25.958;2023-11-21T10:31:43;64.25;;;7.10;;
22334;SDS011;11335;43.848;25.958;2023-11-21T10:34:30;13.70;;;2.92;;
22334;SDS011;11335;43.848;25.958;2023-11-21T10:37:16;8.00;;;2.45;;
22334;SDS011;11335;43.848;25.958;2023-11-21T10:40:02;3.83;;;1.95;;
22334;SDS011;11335;43.848;25.958;2023-11-21T10:42:47;7.13;;;2.67;;
22334;SDS011;11335;43.848;25.958;2023-11-21T10:45:33;5.25;;;2.15;;
22334;SDS011;11335;43.848;25.958;2023-11-21T10:48:19;5.30;;;2.20;;
22334;SDS011;11335;43.848;25.958;2023-11-21T10:51:06;4.78;;;2.40;;
22334;SDS011;11335;43.848;25.958;2023-11-21T10:53:53;5.30;;;2.38;;
22334;SDS011;11335;43.848;25.958;2023-11-21T10:56:39;4.70;;;1.80;;
22334;SDS011;11335;43.848;25.958;2023-11-21T10:59:28;5.88;;;2.17;;
22334;SDS011;11335;43.848;25.958;2023-11-21T11:02:21;10.27;;;2.45;;
22334;SDS011;11335;43.848;25.958;2023-11-21T11:05:06;3.22;;;2.00;;
22334;SDS011;11335;43.848;25.958;2023-11-21T11:08:06;7.30;;;2.67;;
22334;SDS011;11335;43.848;25.958;2023-11-21T11:10:53;11.93;;;2.35;;
22334;SDS011;11335;43.848;25.958;2023-11-21T11:13:41;2.92;;;1.75;;
22334;SDS011;11335;43.848;25.958;2023-11-21T11:16:29;4.28;;;2.17;;
22334;SDS011;11335;43.848;25.958;2023-11-21T11:19:14;8.20;;;2.80;;
22334;SDS011;11335;43.848;25.958;2023-11-21T11:25:13;11.88;;;2.45;;
22334;SDS011;11335;43.848;25.958;2023-11-21T11:33:34;3.20;;;1.90;;
22334;SDS011;11335;43.848;25.958;2023-11-21T11:36:24;5.38;;;2.25;;
22334;SDS011;11335;43.848;25.958;2023-11-21T11:39:26;9.35;;;2.35;;
22334;SDS011;11335;43.848;25.958;2023-11-21T11:42:13;8.38;;;2.20;;
22334;SDS011;11335;43.848;25.958;2023-11-21T11:45:00;5.85;;;2.22;;
22334;SDS011;11335;43.848;25.958;2023-11-21T11:47:45;6.50;;;2.20;;
22334;SDS011;11335;43.848;25.958;2023-11-21T11:50:33;5.32;;;2.05;;
22334;SDS011;11335;43.848;25.958;2023-11-21T11:53:19;3.50;;;1.95;;
22334;SDS011;11335;43.848;25.958;2023-11-21T11:59:13;4.00;;;1.60;;
22334;SDS011;11335;43.848;25.958;2023-11-21T12:01:59;5.82;;;1.95;;
22334;SDS011;11335;43.848;25.958;2023-11-21T12:04:45;7.05;;;3.08;;
22334;SDS011;11335;43.848;25.958;2023-11-21T12:10:31;6.78;;;2.47;;
22334;SDS011;11335;43.848;25.958;2023-11-21T12:13:17;16.80;;;3.42;;
22334;SDS011;11335;43.848;25.958;2023-11-21T12:16:03;6.70;;;2.33;;
22334;SDS011;11335;43.848;25.958;2023-11-21T12:18:49;4.68;;;2.22;;
22334;SDS011;11335;43.848;25.958;2023-11-21T12:21:34;8.25;;;2.30;;
22334;SDS011;11335;43.848;25.958;2023-11-21T12:24:21;6.75;;;2.85;;
22334;SDS011;11335;43.848;25.958;2023-11-21T12:27:09;7.72;;;3.10;;
22334;SDS011;11335;43.848;25.958;2023-11-21T12:29:54;9.00;;;3.78;;
22334;SDS011;11335;43.848;25.958;2023-11-21T12:32:41;4.35;;;2.50;;
22334;SDS011;11335;43.848;25.958;2023-11-21T12:35:27;8.57;;;2.88;;
22334;SDS011;11335;43.848;25.958;2023-11-21T12:38:13;5.15;;;2.30;;
22334;SDS011;11335;43.848;25.958;2023-11-21T12:40:59;5.15;;;2.35;;
22334;SDS011;11335;43.848;25.958;2023-11-21T12:43:45;6.28;;;2.90;;
22334;SDS011;11335;43.848;25.958;2023-11-21T12:46:33;8.35;;;3.42;;
22334;SDS011;11335;43.848;25.958;2023-11-21T12:49:19;8.50;;;3.38;;
22334;SDS011;11335;43.848;25.958;2023-11-21T12:52:07;9.75;;;3.28;;
22334;SDS011;11335;43.848;25.958;2023-11-21T12:54:53;5.68;;;2.70;;
22334;SDS011;11335;43.848;25.958;2023-11-21T12:57:47;5.75;;;2.70;;
22334;SDS011;11335;43.848;25.958;2023-11-21T13:00:40;14.07;;;3.50;;
22334;SDS011;11335;43.848;25.958;2023-11-21T13:03:27;14.48;;;3.80;;
22334;SDS011;11335;43.848;25.958;2023-11-21T13:06:15;7.15;;;3.30;;
22334;SDS011;11335;43.848;25.958;2023-11-21T13:09:01;11.57;;;4.07;;
22334;SDS011;11335;43.848;25.958;2023-11-21T13:11:47;17.60;;;5.00;;
22334;SDS011;11335;43.848;25.958;2023-11-21T13:14:33;10.25;;;3.30;;
22334;SDS011;11335;43.848;25.958;2023-11-21T13:17:19;12.00;;;4.28;;
22334;SDS011;11335;43.848;25.958;2023-11-21T13:20:07;17.63;;;4.53;;
22334;SDS011;11335;43.848;25.958;2023-11-21T13:22:56;6.80;;;2.70;;
22334;SDS011;11335;43.848;25.958;2023-11-21T13:25:46;11.82;;;3.10;;
22334;SDS011;11335;43.848;25.958;2023-11-21T13:28:34;12.25;;;3.33;;
22334;SDS011;11335;43.848;25.958;2023-11-21T13:31:23;15.48;;;3.28;;
22334;SDS011;11335;43.848;25.958;2023-11-21T13:34:14;14.35;;;3.88;;
22334;SDS011;11335;43.848;25.958;2023-11-21T13:37:00;14.82;;;4.70;;
22334;SDS011;11335;43.848;25.958;2023-11-21T13:39:48;17.58;;;4.28;;
22334;SDS011;11335;43.848;25.958;2023-11-21T13:42:35;15.68;;;4.88;;
22334;SDS011;11335;43.848;25.958;2023-11-21T13:45:21;17.92;;;5.55;;
22334;SDS011;11335;43.848;25.958;2023-11-21T13:48:08;29.52;;;5.38;;
22334;SDS011;11335;43.848;25.958;2023-11-21T13:50:59;16.70;;;4.45;;
22334;SDS011;11335;43.848;25.958;2023-11-21T13:53:49;17.30;;;4.78;;
22334;SDS011;11335;43.848;25.958;2023-11-21T13:56:38;15.27;;;4.10;;
22334;SDS011;11335;43.848;25.958;2023-11-21T13:59:26;16.75;;;4.47;;
22334;SDS011;11335;43.848;25.958;2023-11-21T14:02:13;15.35;;;4.20;;
22334;SDS011;11335;43.848;25.958;2023-11-21T14:05:10;19.77;;;5.30;;
22334;SDS011;11335;43.848;25.958;2023-11-21T14:07:56;11.77;;;4.63;;
22334;SDS011;11335;43.848;25.958;2023-11-21T14:10:47;20.50;;;5.43;;
22334;SDS011;11335;43.848;25.958;2023-11-21T14:13:40;21.88;;;6.03;;
22334;SDS011;11335;43.848;25.958;2023-11-21T14:16:31;22.65;;;5.43;;
22334;SDS011;11335;43.848;25.958;2023-11-21T14:19:20;49.10;;;8.85;;
22334;SDS011;11335;43.848;25.958;2023-11-21T14:22:06;14.45;;;5.72;;
22334;SDS011;11335;43.848;25.958;2023-11-21T14:24:55;29.85;;;5.85;;
22334;SDS011;11335;43.848;25.958;2023-11-21T14:27:44;20.85;;;6.28;;
22334;SDS011;11335;43.848;25.958;2023-11-21T14:30:29;28.05;;;7.78;;
22334;SDS011;11335;43.848;25.958;2023-11-21T14:33:17;24.08;;;7.55;;
22334;SDS011;11335;43.848;25.958;2023-11-21T14:36:03;18.35;;;7.50;;
22334;SDS011;11335;43.848;25.958;2023-11-21T14:42:12;16.25;;;6.32;;
22334;SDS011;11335;43.848;25.958;2023-11-21T14:45:00;16.83;;;7.45;;
22334;SDS011;11335;43.848;25.958;2023-11-21T14:47:49;23.85;;;8.88;;
22334;SDS011;11335;43.848;25.958;2023-11-21T14:50:48;23.48;;;7.30;;
22334;SDS011;11335;43.848;25.958;2023-11-21T14:53:53;27.63;;;8.48;;
22334;SDS011;11335;43.848;25.958;2023-11-21T14:56:39;49.63;;;10.18;;
22334;SDS011;11335;43.848;25.958;2023-11-21T14:59:27;28.63;;;8.05;;
22334;SDS011;11335;43.848;25.958;2023-11-21T15:02:13;22.00;;;7.00;;
22334;SDS011;11335;43.848;25.958;2023-11-21T15:05:06;29.17;;;7.07;;
22334;SDS011;11335;43.848;25.958;2023-11-21T15:07:54;28.35;;;6.93;;
22334;SDS011;11335;43.848;25.958;2023-11-21T15:10:53;44.13;;;9.40;;
22334;SDS011;11335;43.848;25.958;2023-11-21T15:13:40;41.72;;;8.48;;
22334;SDS011;11335;43.848;25.958;2023-11-21T15:16:27;56.88;;;10.77;;
22334;SDS011;11335;43.848;25.958;2023-11-21T15:19:12;29.88;;;8.88;;
22334;SDS011;11335;43.848;25.958;2023-11-21T15:22:03;22.73;;;7.50;;
22334;SDS011;11335;43.848;25.958;2023-11-21T15:24:49;41.60;;;10.43;;
22334;SDS011;11335;43.848;25.958;2023-11-21T15:27:35;28.35;;;8.45;;
22334;SDS011;11335;43.848;25.958;2023-11-21T15:30:21;24.27;;;8.25;;
22334;SDS011;11335;43.848;25.958;2023-11-21T15:33:10;45.25;;;10.25;;
22334;SDS011;11335;43.848;25.958;2023-11-21T15:35:56;30.75;;;9.45;;
22334;SDS011;11335;43.848;25.958;2023-11-21T15:38:43;18.25;;;7.30;;
22334;SDS011;11335;43.848;25.958;2023-11-21T15:41:29;17.00;;;6.53;;
22334;SDS011;11335;43.848;25.958;2023-11-21T15:44:14;28.90;;;8.98;;
22334;SDS011;11335;43.848;25.958;2023-11-21T15:47:00;32.15;;;9.05;;
22334;SDS011;11335;43.848;25.958;2023-11-21T15:49:49;19.52;;;7.18;;
22334;SDS011;11335;43.848;25.958;2023-11-21T15:52:35;31.63;;;9.13;;
22334;SDS011;11335;43.848;25.958;2023-11-21T15:55:20;29.63;;;8.98;;
22334;SDS011;11335;43.848;25.958;2023-11-21T15:58:06;38.45;;;10.23;;
22334;SDS011;11335;43.848;25.958;2023-11-21T16:00:52;33.72;;;8.52;;
22334;SDS011;11335;43.848;25.958;2023-11-21T16:03:37;27.73;;;10.13;;
22334;SDS011;11335;43.848;25.958;2023-11-21T16:06:23;33.58;;;9.32;;
22334;SDS011;11335;43.848;25.958;2023-11-21T16:09:09;20.52;;;9.63;;
22334;SDS011;11335;43.848;25.958;2023-11-21T16:12:06;20.63;;;9.77;;
22334;SDS011;11335;43.848;25.958;2023-11-21T16:14:52;43.97;;;11.00;;
22334;SDS011;11335;43.848;25.958;2023-11-21T16:17:38;30.27;;;10.20;;
22334;SDS011;11335;43.848;25.958;2023-11-21T16:20:23;31.58;;;10.23;;
22334;SDS011;11335;43.848;25.958;2023-11-21T16:23:11;16.17;;;7.50;;
22334;SDS011;11335;43.848;25.958;2023-11-21T16:25:56;19.63;;;6.93;;
22334;SDS011;11335;43.848;25.958;2023-11-21T16:28:42;13.70;;;6.07;;
22334;SDS011;11335;43.848;25.958;2023-11-21T16:31:28;18.83;;;5.70;;
22334;SDS011;11335;43.848;25.958;2023-11-21T16:34:14;13.05;;;5.63;;
22334;SDS011;11335;43.848;25.958;2023-11-21T16:37:00;21.80;;;6.55;;
22334;SDS011;11335;43.848;25.958;2023-11-21T16:39:46;30.85;;;8.63;;